West Point, Iowa
Current Conditions -  °F | °C
As of 8:55 AM on Thursday 23 Oct 2014 (Local Time) from KFSW Reporting Station
Broken Clouds Broken Clouds  
Wind Chill: 52°   Ceiling: 6500
Heat Index: 52°   Visibility: 10mi
Dew Point: 45°   Wind: 6mph
Humidity: 76%   Direction: 200°SSW
Pressure: 30.14"   Gusts: NA
Location:  40.72°N, 91.45°W
Report Text: KFSW 231355Z AUTO 20005KT 10SM BKN065 11/07 A3014 RMK AO2
Loading
Personal Weather Stations






























Interactive Weather Map
Tropical Storm Tracking
New forecast layout! Learn more

10-Day Weather Forecast

Advertisements
Track Severe Weather on mobile